sensor_id;sensor_type;location;lat;lon;timestamp;temperature;humidity
16825;DHT22;8529;48.108;-1.706;2023-02-12T00:01:13;6.10;99.90
16825;DHT22;8529;48.108;-1.706;2023-02-12T00:03:42;6.10;99.90
16825;DHT22;8529;48.108;-1.706;2023-02-12T00:06:13;6.10;99.90
16825;DHT22;8529;48.108;-1.706;2023-02-12T00:08:40;6.10;99.90
16825;DHT22;8529;48.108;-1.706;2023-02-12T00:11:16;6.10;99.90
16825;DHT22;8529;48.108;-1.706;2023-02-12T00:13:47;6.10;99.90
16825;DHT22;8529;48.108;-1.706;2023-02-12T00:16:25;6.10;99.90
16825;DHT22;8529;48.108;-1.706;2023-02-12T00:18:57;6.00;99.90
16825;DHT22;8529;48.108;-1.706;2023-02-12T00:21:24;6.00;99.90
16825;DHT22;8529;48.108;-1.706;2023-02-12T00:23:51;6.00;99.90
16825;DHT22;8529;48.108;-1.706;2023-02-12T00:26:19;6.00;99.90
16825;DHT22;8529;48.108;-1.706;2023-02-12T00:28:48;5.90;99.90
16825;DHT22;8529;48.108;-1.706;2023-02-12T00:31:17;5.90;99.90
16825;DHT22;8529;48.108;-1.706;2023-02-12T00:33:44;5.90;99.90
16825;DHT22;8529;48.108;-1.706;2023-02-12T00:36:13;5.90;99.90
16825;DHT22;8529;48.108;-1.706;2023-02-12T00:38:41;5.80;99.90
16825;DHT22;8529;48.108;-1.706;2023-02-12T00:41:08;5.70;99.90
16825;DHT22;8529;48.108;-1.706;2023-02-12T00:43:35;5.70;99.90
16825;DHT22;8529;48.108;-1.706;2023-02-12T00:46:04;5.60;99.90
16825;DHT22;8529;48.108;-1.706;2023-02-12T00:48:31;5.60;99.90
16825;DHT22;8529;48.108;-1.706;2023-02-12T00:50:59;5.60;99.90
16825;DHT22;8529;48.108;-1.706;2023-02-12T00:53:26;5.50;99.90
16825;DHT22;8529;48.108;-1.706;2023-02-12T00:55:53;5.50;99.90
16825;DHT22;8529;48.108;-1.706;2023-02-12T00:58:20;5.40;99.90
16825;DHT22;8529;48.108;-1.706;2023-02-12T01:00:47;5.40;99.90
16825;DHT22;8529;48.108;-1.706;2023-02-12T01:03:15;5.40;99.90
16825;DHT22;8529;48.108;-1.706;2023-02-12T01:05:42;5.40;99.90
16825;DHT22;8529;48.108;-1.706;2023-02-12T01:08:11;5.40;99.90
16825;DHT22;8529;48.108;-1.706;2023-02-12T01:10:39;5.30;99.90
16825;DHT22;8529;48.108;-1.706;2023-02-12T01:13:06;5.40;99.90
16825;DHT22;8529;48.108;-1.706;2023-02-12T01:15:33;5.40;99.90
16825;DHT22;8529;48.108;-1.706;2023-02-12T01:18:00;5.40;99.90
16825;DHT22;8529;48.108;-1.706;2023-02-12T01:20:28;5.40;99.90
16825;DHT22;8529;48.108;-1.706;2023-02-12T01:22:55;5.50;99.90
16825;DHT22;8529;48.108;-1.706;2023-02-12T01:25:22;5.50;99.90
16825;DHT22;8529;48.108;-1.706;2023-02-12T01:27:52;5.50;99.90
16825;DHT22;8529;48.108;-1.706;2023-02-12T01:30:19;5.60;99.90
16825;DHT22;8529;48.108;-1.706;2023-02-12T01:32:48;5.60;99.90
16825;DHT22;8529;48.108;-1.706;2023-02-12T01:35:15;5.60;99.90
16825;DHT22;8529;48.108;-1.706;2023-02-12T01:37:44;5.60;99.90
16825;DHT22;8529;48.108;-1.706;2023-02-12T01:40:18;5.60;99.90
16825;DHT22;8529;48.108;-1.706;2023-02-12T01:42:45;5.60;99.90
16825;DHT22;8529;48.108;-1.706;2023-02-12T01:45:47;5.60;99.90
16825;DHT22;8529;48.108;-1.706;2023-02-12T01:48:16;5.60;99.90
16825;DHT22;8529;48.108;-1.706;2023-02-12T01:50:45;5.50;99.90
16825;DHT22;8529;48.108;-1.706;2023-02-12T01:53:16;5.50;99.90
16825;DHT22;8529;48.108;-1.706;2023-02-12T01:55:47;5.50;99.90
16825;DHT22;8529;48.108;-1.706;2023-02-12T01:58:15;5.50;99.90
16825;DHT22;8529;48.108;-1.706;2023-02-12T02:00:42;5.50;99.90
16825;DHT22;8529;48.108;-1.706;2023-02-12T02:03:09;5.50;99.90
16825;DHT22;8529;48.108;-1.706;2023-02-12T02:05:42;5.50;99.90
16825;DHT22;8529;48.108;-1.706;2023-02-12T02:08:10;5.50;99.90
16825;DHT22;8529;48.108;-1.706;2023-02-12T02:10:38;5.50;99.90
16825;DHT22;8529;48.108;-1.706;2023-02-12T02:13:06;5.50;99.90
16825;DHT22;8529;48.108;-1.706;2023-02-12T02:15:53;5.40;99.90
16825;DHT22;8529;48.108;-1.706;2023-02-12T02:18:25;5.40;99.90
16825;DHT22;8529;48.108;-1.706;2023-02-12T02:21:19;5.40;99.90
16825;DHT22;8529;48.108;-1.706;2023-02-12T02:24:10;5.30;99.90
16825;DHT22;8529;48.108;-1.706;2023-02-12T02:30:12;5.40;99.90
16825;DHT22;8529;48.108;-1.706;2023-02-12T02:32:45;5.40;99.90
16825;DHT22;8529;48.108;-1.706;2023-02-12T02:35:20;5.50;99.90
16825;DHT22;8529;48.108;-1.706;2023-02-12T02:37:59;5.50;99.90
16825;DHT22;8529;48.108;-1.706;2023-02-12T02:40:32;5.60;99.90
16825;DHT22;8529;48.108;-1.706;2023-02-12T02:43:05;5.60;99.90
16825;DHT22;8529;48.108;-1.706;2023-02-12T02:45:37;5.60;99.90
16825;DHT22;8529;48.108;-1.706;2023-02-12T02:48:11;5.60;99.90
16825;DHT22;8529;48.108;-1.706;2023-02-12T02:50:42;5.70;99.90
16825;DHT22;8529;48.108;-1.706;2023-02-12T02:53:13;5.70;99.90
16825;DHT22;8529;48.108;-1.706;2023-02-12T02:55:47;5.70;99.90
16825;DHT22;8529;48.108;-1.706;2023-02-12T02:58:18;5.70;99.90
16825;DHT22;8529;48.108;-1.706;2023-02-12T03:00:52;5.70;99.90
16825;DHT22;8529;48.108;-1.706;2023-02-12T03:03:25;5.70;99.90
16825;DHT22;8529;48.108;-1.706;2023-02-12T03:05:56;5.70;99.90
16825;DHT22;8529;48.108;-1.706;2023-02-12T03:08:28;5.70;99.90
16825;DHT22;8529;48.108;-1.706;2023-02-12T03:11:01;5.70;99.90
16825;DHT22;8529;48.108;-1.706;2023-02-12T03:13:32;5.70;99.90
16825;DHT22;8529;48.108;-1.706;2023-02-12T03:16:06;5.70;99.90
16825;DHT22;8529;48.108;-1.706;2023-02-12T03:18:38;5.60;99.90
16825;DHT22;8529;48.108;-1.706;2023-02-12T03:21:11;5.60;99.90
16825;DHT22;8529;48.108;-1.706;2023-02-12T03:23:43;5.60;99.90
16825;DHT22;8529;48.108;-1.706;2023-02-12T03:26:16;5.60;99.90
16825;DHT22;8529;48.108;-1.706;2023-02-12T03:28:45;5.60;99.90
16825;DHT22;8529;48.108;-1.706;2023-02-12T03:31:19;5.60;99.90
16825;DHT22;8529;48.108;-1.706;2023-02-12T03:34:02;5.60;99.90
16825;DHT22;8529;48.108;-1.706;2023-02-12T03:36:37;5.50;99.90
16825;DHT22;8529;48.108;-1.706;2023-02-12T03:39:10;5.60;99.90
16825;DHT22;8529;48.108;-1.706;2023-02-12T03:41:41;5.50;99.90
16825;DHT22;8529;48.108;-1.706;2023-02-12T03:44:17;5.50;99.90
16825;DHT22;8529;48.108;-1.706;2023-02-12T03:46:55;5.50;99.90
16825;DHT22;8529;48.108;-1.706;2023-02-12T03:49:27;5.60;99.90
16825;DHT22;8529;48.108;-1.706;2023-02-12T03:51:56;5.50;99.90
16825;DHT22;8529;48.108;-1.706;2023-02-12T03:54:24;5.60;99.90
16825;DHT22;8529;48.108;-1.706;2023-02-12T03:56:54;5.50;99.90
16825;DHT22;8529;48.108;-1.706;2023-02-12T03:59:24;5.50;99.90
16825;DHT22;8529;48.108;-1.706;2023-02-12T04:01:54;5.50;99.90
16825;DHT22;8529;48.108;-1.706;2023-02-12T04:04:24;5.50;99.90
16825;DHT22;8529;48.108;-1.706;2023-02-12T04:06:52;5.50;99.90
16825;DHT22;8529;48.108;-1.706;2023-02-12T04:09:19;5.50;99.90
16825;DHT22;8529;48.108;-1.706;2023-02-12T04:11:56;5.50;99.90
16825;DHT22;8529;48.108;-1.706;2023-02-12T04:14:30;5.50;99.90
16825;DHT22;8529;48.108;-1.706;2023-02-12T04:17:05;5.50;99.90
16825;DHT22;8529;48.108;-1.706;2023-02-12T04:19:39;5.50;99.90
16825;DHT22;8529;48.108;-1.706;2023-02-12T04:22:30;5.50;99.90
16825;DHT22;8529;48.108;-1.706;2023-02-12T04:25:05;5.50;99.90
16825;DHT22;8529;48.108;-1.706;2023-02-12T04:27:41;5.50;99.90
16825;DHT22;8529;48.108;-1.706;2023-02-12T04:30:13;5.40;99.90
16825;DHT22;8529;48.108;-1.706;2023-02-12T04:32:47;5.40;99.90
16825;DHT22;8529;48.108;-1.706;2023-02-12T04:35:19;5.40;99.90
16825;DHT22;8529;48.108;-1.706;2023-02-12T04:37:49;5.40;99.90
16825;DHT22;8529;48.108;-1.706;2023-02-12T04:40:19;5.40;99.90
16825;DHT22;8529;48.108;-1.706;2023-02-12T04:42:48;5.30;99.90
16825;DHT22;8529;48.108;-1.706;2023-02-12T04:45:20;5.30;99.90
16825;DHT22;8529;48.108;-1.706;2023-02-12T04:47:49;5.30;99.90
16825;DHT22;8529;48.108;-1.706;2023-02-12T04:50:17;5.30;99.90
16825;DHT22;8529;48.108;-1.706;2023-02-12T04:52:44;5.30;99.90
16825;DHT22;8529;48.108;-1.706;2023-02-12T04:55:11;5.40;99.90
16825;DHT22;8529;48.108;-1.706;2023-02-12T04:57:39;5.40;99.90
16825;DHT22;8529;48.108;-1.706;2023-02-12T05:00:08;5.30;99.90
16825;DHT22;8529;48.108;-1.706;2023-02-12T05:02:35;5.30;99.90
16825;DHT22;8529;48.108;-1.706;2023-02-12T05:05:04;5.30;99.90
16825;DHT22;8529;48.108;-1.706;2023-02-12T05:07:31;5.30;99.90
16825;DHT22;8529;48.108;-1.706;2023-02-12T05:09:58;5.30;99.90
16825;DHT22;8529;48.108;-1.706;2023-02-12T05:12:25;5.30;99.90
16825;DHT22;8529;48.108;-1.706;2023-02-12T05:14:52;5.30;99.90
16825;DHT22;8529;48.108;-1.706;2023-02-12T05:17:21;5.30;99.90
16825;DHT22;8529;48.108;-1.706;2023-02-12T05:19:48;5.30;99.90
16825;DHT22;8529;48.108;-1.706;2023-02-12T05:22:16;5.30;99.90
16825;DHT22;8529;48.108;-1.706;2023-02-12T05:24:43;5.30;99.90
16825;DHT22;8529;48.108;-1.706;2023-02-12T05:27:11;5.30;99.90
16825;DHT22;8529;48.108;-1.706;2023-02-12T05:29:38;5.30;99.90
16825;DHT22;8529;48.108;-1.706;2023-02-12T05:32:05;5.30;99.90
16825;DHT22;8529;48.108;-1.706;2023-02-12T05:34:33;5.30;99.90
16825;DHT22;8529;48.108;-1.706;2023-02-12T05:37:00;5.30;99.90
16825;DHT22;8529;48.108;-1.706;2023-02-12T05:39:28;5.40;99.90
16825;DHT22;8529;48.108;-1.706;2023-02-12T05:41:55;5.30;99.90
16825;DHT22;8529;48.108;-1.706;2023-02-12T05:44:22;5.30;99.90
16825;DHT22;8529;48.108;-1.706;2023-02-12T05:46:49;5.20;99.90
16825;DHT22;8529;48.108;-1.706;2023-02-12T05:49:16;5.20;99.90
16825;DHT22;8529;48.108;-1.706;2023-02-12T05:51:43;5.20;99.90
16825;DHT22;8529;48.108;-1.706;2023-02-12T05:54:10;5.20;99.90
16825;DHT22;8529;48.108;-1.706;2023-02-12T05:56:43;5.20;99.90
16825;DHT22;8529;48.108;-1.706;2023-02-12T05:59:14;5.20;99.90
16825;DHT22;8529;48.108;-1.706;2023-02-12T06:01:42;5.20;99.90
16825;DHT22;8529;48.108;-1.706;2023-02-12T06:04:12;5.20;99.90
16825;DHT22;8529;48.108;-1.706;2023-02-12T06:06:40;5.20;99.90
16825;DHT22;8529;48.108;-1.706;2023-02-12T06:09:07;5.20;99.90
16825;DHT22;8529;48.108;-1.706;2023-02-12T06:11:35;5.20;99.90
16825;DHT22;8529;48.108;-1.706;2023-02-12T06:14:04;5.20;99.90
16825;DHT22;8529;48.108;-1.706;2023-02-12T06:16:32;5.20;99.90
16825;DHT22;8529;48.108;-1.706;2023-02-12T06:19:01;5.20;99.90
16825;DHT22;8529;48.108;-1.706;2023-02-12T06:21:29;5.20;99.90
16825;DHT22;8529;48.108;-1.706;2023-02-12T06:23:57;5.20;99.90
16825;DHT22;8529;48.108;-1.706;2023-02-12T06:26:24;5.10;99.90
16825;DHT22;8529;48.108;-1.706;2023-02-12T06:28:51;5.10;99.90
16825;DHT22;8529;48.108;-1.706;2023-02-12T06:31:22;5.10;99.90
16825;DHT22;8529;48.108;-1.706;2023-02-12T06:33:50;5.10;99.90
16825;DHT22;8529;48.108;-1.706;2023-02-12T06:36:17;5.20;99.90
16825;DHT22;8529;48.108;-1.706;2023-02-12T06:38:44;5.20;99.90
16825;DHT22;8529;48.108;-1.706;2023-02-12T06:41:12;5.10;99.90
16825;DHT22;8529;48.108;-1.706;2023-02-12T06:43:39;5.20;99.90
16825;DHT22;8529;48.108;-1.706;2023-02-12T06:46:07;5.00;99.90
16825;DHT22;8529;48.108;-1.706;2023-02-12T06:48:35;5.00;99.90
16825;DHT22;8529;48.108;-1.706;2023-02-12T06:51:04;4.90;99.90
16825;DHT22;8529;48.108;-1.706;2023-02-12T06:53:32;5.00;99.90
16825;DHT22;8529;48.108;-1.706;2023-02-12T06:55:59;5.00;99.90
16825;DHT22;8529;48.108;-1.706;2023-02-12T06:58:27;5.00;99.90
16825;DHT22;8529;48.108;-1.706;2023-02-12T07:00:54;4.90;99.90
16825;DHT22;8529;48.108;-1.706;2023-02-12T07:03:21;4.90;99.90
16825;DHT22;8529;48.108;-1.706;2023-02-12T07:05:49;4.90;99.90
16825;DHT22;8529;48.108;-1.706;2023-02-12T07:08:16;4.80;99.90
16825;DHT22;8529;48.108;-1.706;2023-02-12T07:10:48;4.70;99.90
16825;DHT22;8529;48.108;-1.706;2023-02-12T07:13:15;4.60;99.90
16825;DHT22;8529;48.108;-1.706;2023-02-12T07:15:42;4.60;99.90
16825;DHT22;8529;48.108;-1.706;2023-02-12T07:18:09;4.60;99.90
16825;DHT22;8529;48.108;-1.706;2023-02-12T07:20:36;4.50;99.90
16825;DHT22;8529;48.108;-1.706;2023-02-12T07:23:04;4.30;99.90
16825;DHT22;8529;48.108;-1.706;2023-02-12T07:25:31;4.30;99.90
16825;DHT22;8529;48.108;-1.706;2023-02-12T07:27:59;4.20;99.90
16825;DHT22;8529;48.108;-1.706;2023-02-12T07:30:26;4.30;99.90
16825;DHT22;8529;48.108;-1.706;2023-02-12T07:32:53;4.20;99.90
16825;DHT22;8529;48.108;-1.706;2023-02-12T07:35:20;4.10;99.90
16825;DHT22;8529;48.108;-1.706;2023-02-12T07:37:47;4.20;99.90
16825;DHT22;8529;48.108;-1.706;2023-02-12T07:40:15;4.20;99.90
16825;DHT22;8529;48.108;-1.706;2023-02-12T07:42:42;4.10;99.90
16825;DHT22;8529;48.108;-1.706;2023-02-12T07:45:09;4.10;99.90
16825;DHT22;8529;48.108;-1.706;2023-02-12T07:47:36;4.10;99.90
16825;DHT22;8529;48.108;-1.706;2023-02-12T07:50:06;4.20;99.90
16825;DHT22;8529;48.108;-1.706;2023-02-12T07:52:33;4.20;99.90
16825;DHT22;8529;48.108;-1.706;2023-02-12T07:55:00;4.30;99.90
16825;DHT22;8529;48.108;-1.706;2023-02-12T07:57:28;4.30;99.90
16825;DHT22;8529;48.108;-1.706;2023-02-12T07:59:55;4.40;99.90
16825;DHT22;8529;48.108;-1.706;2023-02-12T08:02:22;4.40;99.90
16825;DHT22;8529;48.108;-1.706;2023-02-12T08:04:54;4.40;99.90
16825;DHT22;8529;48.108;-1.706;2023-02-12T08:07:21;4.50;99.90
16825;DHT22;8529;48.108;-1.706;2023-02-12T08:09:48;4.50;99.90
16825;DHT22;8529;48.108;-1.706;2023-02-12T08:12:16;4.50;99.90
16825;DHT22;8529;48.108;-1.706;2023-02-12T08:14:44;4.60;99.90
16825;DHT22;8529;48.108;-1.706;2023-02-12T08:17:11;4.70;99.90
16825;DHT22;8529;48.108;-1.706;2023-02-12T08:19:38;4.80;99.90
16825;DHT22;8529;48.108;-1.706;2023-02-12T08:22:05;4.90;99.90
16825;DHT22;8529;48.108;-1.706;2023-02-12T08:24:33;5.00;99.90
16825;DHT22;8529;48.108;-1.706;2023-02-12T08:27:00;5.00;99.90
16825;DHT22;8529;48.108;-1.706;2023-02-12T08:29:28;5.00;99.90
16825;DHT22;8529;48.108;-1.706;2023-02-12T08:31:58;5.10;99.90
16825;DHT22;8529;48.108;-1.706;2023-02-12T08:34:27;5.10;99.90
16825;DHT22;8529;48.108;-1.706;2023-02-12T08:36:55;5.10;99.90
16825;DHT22;8529;48.108;-1.706;2023-02-12T08:39:24;5.20;99.90
16825;DHT22;8529;48.108;-1.706;2023-02-12T08:41:53;5.30;99.90
16825;DHT22;8529;48.108;-1.706;2023-02-12T08:44:21;5.30;99.90
16825;DHT22;8529;48.108;-1.706;2023-02-12T08:46:49;5.20;99.90
16825;DHT22;8529;48.108;-1.706;2023-02-12T08:49:19;5.30;99.90
16825;DHT22;8529;48.108;-1.706;2023-02-12T08:51:48;5.40;99.90
16825;DHT22;8529;48.108;-1.706;2023-02-12T08:54:18;5.40;99.90
16825;DHT22;8529;48.108;-1.706;2023-02-12T08:56:45;5.60;99.90
16825;DHT22;8529;48.108;-1.706;2023-02-12T08:59:13;5.60;99.90
16825;DHT22;8529;48.108;-1.706;2023-02-12T09:01:41;5.70;99.90
16825;DHT22;8529;48.108;-1.706;2023-02-12T09:04:12;5.60;99.90
16825;DHT22;8529;48.108;-1.706;2023-02-12T09:06:41;5.70;99.90
16825;DHT22;8529;48.108;-1.706;2023-02-12T09:09:08;5.70;99.90
16825;DHT22;8529;48.108;-1.706;2023-02-12T09:11:35;5.70;99.90
16825;DHT22;8529;48.108;-1.706;2023-02-12T09:14:04;5.60;99.90
16825;DHT22;8529;48.108;-1.706;2023-02-12T09:16:33;5.60;99.90
16825;DHT22;8529;48.108;-1.706;2023-02-12T09:19:00;5.60;99.90
16825;DHT22;8529;48.108;-1.706;2023-02-12T09:21:27;5.60;99.90
16825;DHT22;8529;48.108;-1.706;2023-02-12T09:23:56;5.60;99.90
16825;DHT22;8529;48.108;-1.706;2023-02-12T09:26:24;5.60;99.90
16825;DHT22;8529;48.108;-1.706;2023-02-12T09:28:52;5.60;99.90
16825;DHT22;8529;48.108;-1.706;2023-02-12T09:31:21;5.60;99.90
16825;DHT22;8529;48.108;-1.706;2023-02-12T09:33:51;5.70;99.90
16825;DHT22;8529;48.108;-1.706;2023-02-12T09:36:19;5.80;99.90
16825;DHT22;8529;48.108;-1.706;2023-02-12T09:38:46;5.80;99.90
16825;DHT22;8529;48.108;-1.706;2023-02-12T09:41:38;5.90;99.90
16825;DHT22;8529;48.108;-1.706;2023-02-12T09:44:13;5.90;99.90
16825;DHT22;8529;48.108;-1.706;2023-02-12T09:46:46;5.90;99.90
16825;DHT22;8529;48.108;-1.706;2023-02-12T09:49:21;5.90;99.90
16825;DHT22;8529;48.108;-1.706;2023-02-12T09:51:51;6.00;99.90
16825;DHT22;8529;48.108;-1.706;2023-02-12T09:54:20;6.00;99.90
16825;DHT22;8529;48.108;-1.706;2023-02-12T09:56:53;6.10;99.90
16825;DHT22;8529;48.108;-1.706;2023-02-12T09:59:32;6.10;99.90
16825;DHT22;8529;48.108;-1.706;2023-02-12T10:02:00;6.10;99.90
16825;DHT22;8529;48.108;-1.706;2023-02-12T10:04:28;6.10;99.90
16825;DHT22;8529;48.108;-1.706;2023-02-12T10:07:02;6.10;99.90
16825;DHT22;8529;48.108;-1.706;2023-02-12T10:09:45;6.20;99.90
16825;DHT22;8529;48.108;-1.706;2023-02-12T10:12:24;6.20;99.90
16825;DHT22;8529;48.108;-1.706;2023-02-12T10:15:11;6.30;99.90
16825;DHT22;8529;48.108;-1.706;2023-02-12T10:17:42;6.30;99.90
16825;DHT22;8529;48.108;-1.706;2023-02-12T10:20:49;6.30;99.90
16825;DHT22;8529;48.108;-1.706;2023-02-12T10:23:35;6.30;99.90
16825;DHT22;8529;48.108;-1.706;2023-02-12T10:26:12;6.40;99.90
16825;DHT22;8529;48.108;-1.706;2023-02-12T10:28:43;6.40;99.90
16825;DHT22;8529;48.108;-1.706;2023-02-12T10:31:15;6.50;99.90
16825;DHT22;8529;48.108;-1.706;2023-02-12T10:33:44;6.50;99.90
16825;DHT22;8529;48.108;-1.706;2023-02-12T10:36:20;6.50;99.90
16825;DHT22;8529;48.108;-1.706;2023-02-12T10:38:52;6.60;99.90
16825;DHT22;8529;48.108;-1.706;2023-02-12T10:41:21;6.60;99.90
16825;DHT22;8529;48.108;-1.706;2023-02-12T10:43:51;6.60;99.90
16825;DHT22;8529;48.108;-1.706;2023-02-12T10:46:18;6.60;99.90
16825;DHT22;8529;48.108;-1.706;2023-02-12T10:48:48;6.60;99.90
16825;DHT22;8529;48.108;-1.706;2023-02-12T10:51:38;6.60;99.90
16825;DHT22;8529;48.108;-1.706;2023-02-12T10:54:34;6.60;99.90
16825;DHT22;8529;48.108;-1.706;2023-02-12T10:57:12;6.70;99.90
16825;DHT22;8529;48.108;-1.706;2023-02-12T10:59:43;6.70;99.90
16825;DHT22;8529;48.108;-1.706;2023-02-12T11:02:21;6.80;99.90
16825;DHT22;8529;48.108;-1.706;2023-02-12T11:04:49;7.00;99.90
16825;DHT22;8529;48.108;-1.706;2023-02-12T11:07:16;7.20;99.90
16825;DHT22;8529;48.108;-1.706;2023-02-12T11:09:45;7.30;99.90
16825;DHT22;8529;48.108;-1.706;2023-02-12T11:12:29;7.40;99.90
16825;DHT22;8529;48.108;-1.706;2023-02-12T11:14:59;7.50;99.90
16825;DHT22;8529;48.108;-1.706;2023-02-12T11:17:32;7.50;99.90
16825;DHT22;8529;48.108;-1.706;2023-02-12T11:20:19;7.60;99.90
16825;DHT22;8529;48.108;-1.706;2023-02-12T11:22:52;7.60;99.90
16825;DHT22;8529;48.108;-1.706;2023-02-12T11:25:21;7.50;99.90
16825;DHT22;8529;48.108;-1.706;2023-02-12T11:28:03;7.40;99.90
16825;DHT22;8529;48.108;-1.706;2023-02-12T11:30:32;7.30;99.90
16825;DHT22;8529;48.108;-1.706;2023-02-12T11:33:16;7.20;99.90
16825;DHT22;8529;48.108;-1.706;2023-02-12T11:35:52;7.10;99.90
16825;DHT22;8529;48.108;-1.706;2023-02-12T11:38:25;7.10;99.90
16825;DHT22;8529;48.108;-1.706;2023-02-12T11:40:56;7.20;99.90
16825;DHT22;8529;48.108;-1.706;2023-02-12T11:43:24;7.40;99.90
16825;DHT22;8529;48.108;-1.706;2023-02-12T11:45:54;7.50;99.90
16825;DHT22;8529;48.108;-1.706;2023-02-12T11:48:26;7.70;99.90
16825;DHT22;8529;48.108;-1.706;2023-02-12T11:50:55;7.90;99.90
16825;DHT22;8529;48.108;-1.706;2023-02-12T11:53:24;7.90;99.90
16825;DHT22;8529;48.108;-1.706;2023-02-12T11:55:55;7.90;99.90
16825;DHT22;8529;48.108;-1.706;2023-02-12T11:58:23;7.80;99.90
16825;DHT22;8529;48.108;-1.706;2023-02-12T12:00:55;7.80;99.90
16825;DHT22;8529;48.108;-1.706;2023-02-12T12:03:27;7.70;99.90
16825;DHT22;8529;48.108;-1.706;2023-02-12T12:05:58;7.70;99.90
16825;DHT22;8529;48.108;-1.706;2023-02-12T12:08:30;7.60;99.90
16825;DHT22;8529;48.108;-1.706;2023-02-12T12:11:03;7.60;99.90
16825;DHT22;8529;48.108;-1.706;2023-02-12T12:13:38;7.60;99.90
16825;DHT22;8529;48.108;-1.706;2023-02-12T12:16:13;7.70;99.90
16825;DHT22;8529;48.108;-1.706;2023-02-12T12:19:05;7.70;99.90
16825;DHT22;8529;48.108;-1.706;2023-02-12T12:21:58;7.70;99.90
16825;DHT22;8529;48.108;-1.706;2023-02-12T12:24:35;7.80;99.90
16825;DHT22;8529;48.108;-1.706;2023-02-12T12:27:08;7.80;99.90
16825;DHT22;8529;48.108;-1.706;2023-02-12T12:29:53;7.80;99.90
16825;DHT22;8529;48.108;-1.706;2023-02-12T12:32:25;7.90;99.90
16825;DHT22;8529;48.108;-1.706;2023-02-12T12:34:54;7.80;99.90
16825;DHT22;8529;48.108;-1.706;2023-02-12T12:37:29;7.70;99.90
16825;DHT22;8529;48.108;-1.706;2023-02-12T12:40:12;7.70;99.90
16825;DHT22;8529;48.108;-1.706;2023-02-12T12:43:10;7.70;99.90
16825;DHT22;8529;48.108;-1.706;2023-02-12T12:49:08;7.90;99.90
16825;DHT22;8529;48.108;-1.706;2023-02-12T12:51:59;7.90;99.90
16825;DHT22;8529;48.108;-1.706;2023-02-12T12:54:39;7.90;99.90
16825;DHT22;8529;48.108;-1.706;2023-02-12T12:57:19;8.00;99.90
16825;DHT22;8529;48.108;-1.706;2023-02-12T13:00:03;8.10;99.90
16825;DHT22;8529;48.108;-1.706;2023-02-12T13:11:52;8.10;99.90
16825;DHT22;8529;48.108;-1.706;2023-02-12T13:14:30;8.10;99.90
16825;DHT22;8529;48.108;-1.706;2023-02-12T13:17:04;8.10;99.90
16825;DHT22;8529;48.108;-1.706;2023-02-12T13:19:43;8.10;99.90
16825;DHT22;8529;48.108;-1.706;2023-02-12T13:22:15;8.20;99.90
16825;DHT22;8529;48.108;-1.706;2023-02-12T13:24:51;8.20;99.90
16825;DHT22;8529;48.108;-1.706;2023-02-12T13:27:24;8.20;99.90
16825;DHT22;8529;48.108;-1.706;2023-02-12T13:29:53;8.20;99.90
16825;DHT22;8529;48.108;-1.706;2023-02-12T13:32:27;8.20;99.90
16825;DHT22;8529;48.108;-1.706;2023-02-12T13:34:55;8.20;99.90
16825;DHT22;8529;48.108;-1.706;2023-02-12T13:37:31;8.30;99.90
16825;DHT22;8529;48.108;-1.706;2023-02-12T13:40:04;8.30;99.90
16825;DHT22;8529;48.108;-1.706;2023-02-12T13:42:40;8.30;99.90
16825;DHT22;8529;48.108;-1.706;2023-02-12T13:45:18;8.30;99.90
16825;DHT22;8529;48.108;-1.706;2023-02-12T13:47:54;8.30;99.90
16825;DHT22;8529;48.108;-1.706;2023-02-12T13:50:34;8.40;99.90
16825;DHT22;8529;48.108;-1.706;2023-02-12T13:53:07;8.40;99.90
16825;DHT22;8529;48.108;-1.706;2023-02-12T13:55:52;8.50;99.90
16825;DHT22;8529;48.108;-1.706;2023-02-12T13:58:49;8.50;99.90
16825;DHT22;8529;48.108;-1.706;2023-02-12T14:01:41;8.50;99.90
16825;DHT22;8529;48.108;-1.706;2023-02-12T14:04:29;8.50;99.90
16825;DHT22;8529;48.108;-1.706;2023-02-12T14:06:59;8.50;99.90
16825;DHT22;8529;48.108;-1.706;2023-02-12T14:09:31;8.60;99.90
16825;DHT22;8529;48.108;-1.706;2023-02-12T14:12:02;8.60;99.90
16825;DHT22;8529;48.108;-1.706;2023-02-12T14:14:34;8.60;99.90
16825;DHT22;8529;48.108;-1.706;2023-02-12T14:17:41;8.60;99.90
16825;DHT22;8529;48.108;-1.706;2023-02-12T14:20:24;8.60;99.90
16825;DHT22;8529;48.108;-1.706;2023-02-12T14:23:25;8.60;99.90
16825;DHT22;8529;48.108;-1.706;2023-02-12T14:25:58;8.60;99.90
16825;DHT22;8529;48.108;-1.706;2023-02-12T14:28:31;8.70;99.90
16825;DHT22;8529;48.108;-1.706;2023-02-12T14:31:31;8.70;99.90
16825;DHT22;8529;48.108;-1.706;2023-02-12T14:34:36;8.70;99.90
16825;DHT22;8529;48.108;-1.706;2023-02-12T14:37:13;8.70;99.90
16825;DHT22;8529;48.108;-1.706;2023-02-12T14:39:40;8.70;99.90
16825;DHT22;8529;48.108;-1.706;2023-02-12T14:42:42;8.70;99.90
16825;DHT22;8529;48.108;-1.706;2023-02-12T14:45:28;8.80;99.90
16825;DHT22;8529;48.108;-1.706;2023-02-12T14:47:56;8.80;99.90
16825;DHT22;8529;48.108;-1.706;2023-02-12T14:50:29;8.70;99.90
16825;DHT22;8529;48.108;-1.706;2023-02-12T14:53:05;8.80;99.90
16825;DHT22;8529;48.108;-1.706;2023-02-12T14:55:34;8.80;99.90
16825;DHT22;8529;48.108;-1.706;2023-02-12T14:58:04;8.80;99.90
16825;DHT22;8529;48.108;-1.706;2023-02-12T15:00:36;8.80;99.90
16825;DHT22;8529;48.108;-1.706;2023-02-12T15:03:15;8.80;99.90
16825;DHT22;8529;48.108;-1.706;2023-02-12T15:05:48;8.80;99.90
16825;DHT22;8529;48.108;-1.706;2023-02-12T15:08:25;8.80;99.90
16825;DHT22;8529;48.108;-1.706;2023-02-12T15:10:56;8.80;99.90
16825;DHT22;8529;48.108;-1.706;2023-02-12T15:13:28;8.90;99.90
16825;DHT22;8529;48.108;-1.706;2023-02-12T15:16:05;8.90;99.90
16825;DHT22;8529;48.108;-1.706;2023-02-12T15:18:42;8.90;99.90
16825;DHT22;8529;48.108;-1.706;2023-02-12T15:21:17;8.90;99.90
16825;DHT22;8529;48.108;-1.706;2023-02-12T15:23:47;8.80;99.90
16825;DHT22;8529;48.108;-1.706;2023-02-12T15:26:24;8.80;99.90
16825;DHT22;8529;48.108;-1.706;2023-02-12T15:28:52;8.80;99.90
16825;DHT22;8529;48.108;-1.706;2023-02-12T15:31:25;8.80;99.90
16825;DHT22;8529;48.108;-1.706;2023-02-12T15:33:53;8.80;99.90
16825;DHT22;8529;48.108;-1.706;2023-02-12T15:36:22;8.90;99.90
16825;DHT22;8529;48.108;-1.706;2023-02-12T15:38:51;8.90;99.90
16825;DHT22;8529;48.108;-1.706;2023-02-12T15:41:25;8.90;99.90
16825;DHT22;8529;48.108;-1.706;2023-02-12T15:43:52;8.90;99.90
16825;DHT22;8529;48.108;-1.706;2023-02-12T15:46:21;8.90;99.90
16825;DHT22;8529;48.108;-1.706;2023-02-12T15:48:48;8.90;99.90
16825;DHT22;8529;48.108;-1.706;2023-02-12T15:51:19;8.90;99.90
16825;DHT22;8529;48.108;-1.706;2023-02-12T15:53:47;8.90;99.90
16825;DHT22;8529;48.108;-1.706;2023-02-12T15:56:16;9.00;99.90
16825;DHT22;8529;48.108;-1.706;2023-02-12T15:58:47;9.00;99.90
16825;DHT22;8529;48.108;-1.706;2023-02-12T16:01:16;9.00;99.90
16825;DHT22;8529;48.108;-1.706;2023-02-12T16:03:49;9.00;99.90
16825;DHT22;8529;48.108;-1.706;2023-02-12T16:06:17;9.00;99.90
16825;DHT22;8529;48.108;-1.706;2023-02-12T16:08:47;8.90;99.90
16825;DHT22;8529;48.108;-1.706;2023-02-12T16:11:18;8.90;99.90
16825;DHT22;8529;48.108;-1.706;2023-02-12T16:13:48;8.90;99.90
16825;DHT22;8529;48.108;-1.706;2023-02-12T16:16:20;8.90;99.90
16825;DHT22;8529;48.108;-1.706;2023-02-12T16:19:05;8.90;99.90
16825;DHT22;8529;48.108;-1.706;2023-02-12T16:21:35;8.80;99.90
16825;DHT22;8529;48.108;-1.706;2023-02-12T16:24:03;8.80;99.90
16825;DHT22;8529;48.108;-1.706;2023-02-12T16:26:31;8.80;99.90
16825;DHT22;8529;48.108;-1.706;2023-02-12T16:28:58;8.80;99.90
16825;DHT22;8529;48.108;-1.706;2023-02-12T16:31:26;8.80;99.90